createdAt,value
2022-09-20T00:01:10.703Z,22.41
2022-09-20T00:03:38.306Z,22.38
2022-09-20T00:06:06.110Z,22.40
2022-09-20T00:08:32.884Z,22.39
2022-09-20T00:11:01.620Z,22.40
2022-09-20T00:13:28.100Z,22.38
2022-09-20T00:15:54.428Z,22.39
2022-09-20T00:18:20.760Z,22.37
2022-09-20T00:20:48.168Z,22.39
2022-09-20T00:23:14.842Z,22.39
2022-09-20T00:25:41.678Z,22.40
2022-09-20T00:28:08.457Z,22.40
2022-09-20T00:30:35.109Z,22.38
2022-09-20T00:33:01.630Z,22.38
2022-09-20T00:35:29.405Z,22.37
2022-09-20T00:37:55.798Z,22.38
2022-09-20T00:40:23.678Z,22.37
2022-09-20T00:42:50.311Z,22.37
2022-09-20T00:45:21.662Z,22.37
2022-09-20T00:47:57.307Z,22.36
2022-09-20T00:50:30.001Z,22.35
2022-09-20T00:53:16.647Z,22.35
2022-09-20T00:55:48.881Z,22.34
2022-09-20T00:58:16.579Z,22.35
2022-09-20T01:00:43.888Z,22.36
2022-09-20T01:03:11.277Z,22.37
2022-09-20T01:05:38.613Z,22.35
2022-09-20T01:08:05.574Z,22.36
2022-09-20T01:10:32.325Z,22.36
2022-09-20T01:12:58.691Z,22.36
2022-09-20T01:15:27.936Z,22.36
2022-09-20T01:17:55.677Z,22.37
2022-09-20T01:20:31.032Z,22.37
2022-09-20T01:23:12.248Z,22.36
2022-09-20T01:25:41.643Z,22.36
2022-09-20T01:28:08.068Z,22.36
2022-09-20T01:30:54.715Z,22.37
2022-09-20T01:33:40.979Z,22.36
2022-09-20T01:36:09.195Z,22.36
2022-09-20T01:38:54.576Z,22.36
2022-09-20T01:41:26.760Z,22.36
2022-09-20T01:43:55.307Z,22.34
2022-09-20T01:46:31.574Z,22.35
2022-09-20T01:49:16.164Z,22.35
2022-09-20T01:52:01.308Z,22.34
2022-09-20T01:54:40.949Z,22.35
2022-09-20T01:57:27.751Z,22.34
2022-09-20T02:00:03.115Z,22.34
2022-09-20T02:02:32.787Z,22.34
2022-09-20T02:05:19.400Z,22.32
2022-09-20T02:07:56.452Z,22.33
2022-09-20T02:10:28.649Z,22.31
2022-09-20T02:12:56.139Z,22.23
2022-09-20T02:15:36.528Z,22.19
2022-09-20T02:18:21.776Z,22.19
2022-09-20T02:20:57.311Z,22.20
2022-09-20T02:23:29.684Z,22.27
2022-09-20T02:26:05.195Z,22.29
2022-09-20T02:28:49.458Z,22.30
2022-09-20T02:31:21.922Z,22.30
2022-09-20T02:34:07.277Z,22.31
2022-09-20T02:37:06.316Z,22.32
2022-09-20T02:39:39.371Z,22.31
2022-09-20T02:42:05.762Z,22.30
2022-09-20T02:44:50.943Z,22.32
2022-09-20T02:47:17.257Z,22.31
2022-09-20T02:49:54.003Z,22.32
2022-09-20T02:52:29.198Z,22.31
2022-09-20T02:55:01.367Z,22.32
2022-09-20T02:57:33.920Z,22.31
2022-09-20T03:00:23.736Z,22.31
2022-09-20T03:02:51.359Z,22.31
2022-09-20T03:05:30.031Z,22.32
2022-09-20T03:08:03.237Z,22.31
2022-09-20T03:10:35.829Z,22.31
2022-09-20T03:13:25.582Z,22.30
2022-09-20T03:16:05.457Z,22.31
2022-09-20T03:18:34.713Z,22.31
2022-09-20T03:21:06.776Z,22.32
2022-09-20T03:23:51.983Z,22.31
2022-09-20T03:26:27.533Z,22.31
2022-09-20T03:28:59.984Z,22.31
2022-09-20T03:31:45.466Z,22.31
2022-09-20T03:34:30.415Z,22.30
2022-09-20T03:36:56.922Z,22.29
2022-09-20T03:39:42.139Z,22.30
2022-09-20T03:42:18.079Z,22.29
2022-09-20T03:44:50.582Z,22.28
2022-09-20T03:47:36.759Z,22.29
2022-09-20T03:50:12.453Z,22.30
2022-09-20T03:53:00.942Z,22.28
2022-09-20T03:55:36.350Z,22.28
2022-09-20T03:58:08.070Z,22.27
2022-09-20T04:00:48.346Z,22.29
2022-09-20T04:03:23.331Z,22.26
2022-09-20T04:05:59.679Z,22.28
2022-09-20T04:08:40.020Z,22.29
2022-09-20T04:11:11.525Z,22.30
2022-09-20T04:13:40.118Z,22.30
2022-09-20T04:16:15.664Z,22.30
2022-09-20T04:18:42.046Z,22.30
2022-09-20T04:21:14.141Z,22.31
2022-09-20T04:23:49.673Z,22.30
2022-09-20T04:26:19.200Z,22.30
2022-09-20T04:28:52.451Z,22.28
2022-09-20T04:31:21.565Z,22.29
2022-09-20T04:33:50.251Z,22.29
2022-09-20T04:36:32.079Z,22.29
2022-09-20T04:39:15.126Z,22.28
2022-09-20T04:41:41.510Z,22.28
2022-09-20T04:44:09.021Z,22.28
2022-09-20T04:46:35.674Z,22.27
2022-09-20T04:49:08.082Z,22.26
2022-09-20T04:51:37.537Z,22.19
2022-09-20T04:54:13.306Z,22.17
2022-09-20T04:56:55.118Z,22.10
2022-09-20T04:59:45.954Z,22.14
2022-09-20T05:02:27.704Z,22.24
2022-09-20T05:05:14.474Z,22.28
2022-09-20T05:07:40.864Z,22.26
2022-09-20T05:10:43.568Z,22.27
2022-09-20T05:13:16.029Z,22.29
2022-09-20T05:15:51.582Z,22.25
2022-09-20T05:18:18.008Z,22.15
2022-09-20T05:20:47.433Z,22.05
2022-09-20T05:23:25.156Z,21.98
2022-09-20T05:26:07.193Z,21.94
2022-09-20T05:28:33.611Z,21.92
2022-09-20T05:31:13.710Z,21.91
2022-09-20T05:33:57.196Z,21.92
2022-09-20T05:36:34.204Z,21.92
2022-09-20T05:39:03.486Z,21.94
2022-09-20T05:41:36.974Z,21.94
2022-09-20T05:44:12.705Z,21.95
2022-09-20T05:46:57.449Z,21.97
2022-09-20T05:49:39.754Z,21.97
2022-09-20T05:52:32.117Z,21.98
2022-09-20T05:55:16.021Z,21.98
2022-09-20T05:57:57.564Z,21.99
2022-09-20T06:00:29.063Z,21.99
2022-09-20T06:03:15.374Z,21.99
2022-09-20T06:05:58.927Z,22.02
2022-09-20T06:08:44.185Z,22.02
2022-09-20T06:11:16.678Z,22.02
2022-09-20T06:13:43.082Z,22.03
2022-09-20T06:16:12.825Z,22.04
2022-09-20T06:18:57.851Z,22.05
2022-09-20T06:21:27.225Z,22.05
2022-09-20T06:23:58.536Z,22.06
2022-09-20T06:26:27.083Z,22.06
2022-09-20T06:28:58.424Z,22.07
2022-09-20T06:31:25.425Z,22.07
2022-09-20T06:34:13.211Z,22.08
2022-09-20T06:37:03.735Z,22.09
2022-09-20T06:39:48.610Z,22.09
2022-09-20T06:42:14.967Z,22.09
2022-09-20T06:44:43.169Z,22.09
2022-09-20T06:47:13.333Z,22.13
2022-09-20T06:49:42.476Z,22.13
2022-09-20T06:52:14.056Z,22.14
2022-09-20T06:54:43.482Z,22.17
2022-09-20T06:57:10.512Z,22.18
2022-09-20T06:59:37.009Z,22.19
2022-09-20T07:02:03.427Z,22.20
2022-09-20T07:04:30.124Z,22.22
2022-09-20T07:07:00.039Z,22.24
2022-09-20T07:09:26.408Z,22.26
2022-09-20T07:11:52.826Z,22.26
2022-09-20T07:14:19.254Z,22.27
2022-09-20T07:16:45.795Z,22.28
2022-09-20T07:19:12.277Z,22.29
2022-09-20T07:21:38.662Z,22.30
2022-09-20T07:24:05.090Z,22.31
2022-09-20T07:26:31.858Z,22.32
2022-09-20T07:28:59.197Z,22.32
2022-09-20T07:31:26.852Z,22.34
2022-09-20T07:33:53.558Z,22.36
2022-09-20T07:36:20.405Z,22.36
2022-09-20T07:38:48.059Z,22.37
2022-09-20T07:41:14.523Z,22.37
2022-09-20T07:43:40.941Z,22.38
2022-09-20T07:46:07.413Z,22.38
2022-09-20T07:48:35.412Z,22.41
2022-09-20T07:51:08.043Z,22.40
2022-09-20T07:53:35.409Z,22.42
2022-09-20T07:56:12.214Z,22.43
2022-09-20T07:58:39.123Z,22.43
2022-09-20T08:01:07.131Z,22.43
2022-09-20T08:03:34.550Z,22.48
2022-09-20T08:06:01.795Z,22.47
2022-09-20T08:08:29.232Z,22.48
2022-09-20T08:11:02.654Z,22.50
2022-09-20T08:16:17.060Z,22.51
2022-09-20T08:19:02.700Z,22.52
2022-09-20T08:21:31.574Z,22.52
2022-09-20T08:23:58.682Z,22.53
2022-09-20T08:26:25.861Z,22.53
2022-09-20T08:28:56.228Z,22.54
2022-09-20T08:31:24.285Z,22.53
2022-09-20T08:33:51.155Z,22.57
2022-09-20T08:36:18.886Z,22.57
2022-09-20T08:41:44.433Z,22.59
2022-09-20T08:44:17.190Z,22.60
2022-09-20T08:46:47.504Z,22.61
2022-09-20T08:49:23.449Z,22.61
2022-09-20T08:51:50.662Z,22.61
2022-09-20T08:54:17.016Z,22.62
2022-09-20T08:56:45.392Z,22.63
2022-09-20T08:59:14.839Z,22.65
2022-09-20T09:01:41.693Z,22.65
2022-09-20T09:04:15.902Z,22.65
2022-09-20T09:06:43.412Z,22.66
2022-09-20T09:09:14.180Z,22.67
2022-09-20T09:11:45.691Z,22.66
2022-09-20T09:14:35.557Z,22.68
2022-09-20T09:17:01.976Z,22.68
2022-09-20T09:19:36.812Z,22.69
2022-09-20T09:22:04.455Z,22.70
2022-09-20T09:24:31.509Z,22.70
2022-09-20T09:27:16.310Z,22.70
2022-09-20T09:29:52.794Z,22.71
2022-09-20T09:32:29.093Z,22.72
2022-09-20T09:34:56.161Z,22.72
2022-09-20T09:37:28.822Z,22.73
2022-09-20T09:40:18.573Z,22.72
2022-09-20T09:42:56.861Z,22.72
2022-09-20T09:45:28.156Z,22.73
2022-09-20T09:47:55.418Z,22.73
2022-09-20T09:50:24.362Z,22.72
2022-09-20T09:52:58.248Z,22.74
2022-09-20T09:55:27.887Z,22.74
2022-09-20T09:57:59.680Z,22.73
2022-09-20T10:00:27.244Z,22.74
2022-09-20T10:02:53.614Z,22.74
2022-09-20T10:05:24.738Z,22.76
2022-09-20T10:08:01.160Z,22.74
2022-09-20T10:10:39.679Z,22.77
2022-09-20T10:13:15.297Z,22.77
2022-09-20T10:15:50.637Z,22.77
2022-09-20T10:18:26.482Z,22.77
2022-09-20T10:20:53.260Z,22.76
2022-09-20T10:23:39.831Z,22.76
2022-09-20T10:26:30.841Z,22.75
2022-09-20T10:29:09.616Z,22.74
2022-09-20T10:32:00.985Z,22.77
2022-09-20T10:34:33.442Z,22.75
2022-09-20T10:37:00.473Z,22.75
2022-09-20T10:39:43.226Z,22.77
2022-09-20T10:42:37.567Z,22.75
2022-09-20T10:45:42.132Z,22.75
2022-09-20T10:48:07.341Z,22.76
2022-09-20T10:50:39.692Z,22.75
2022-09-20T10:53:27.153Z,22.76
2022-09-20T10:55:59.842Z,22.74
2022-09-20T10:58:30.516Z,22.76
2022-09-20T11:01:17.606Z,22.75
2022-09-20T11:03:59.110Z,22.76
2022-09-20T11:06:28.456Z,22.75
2022-09-20T11:08:58.292Z,22.75
2022-09-20T11:11:41.857Z,22.74
2022-09-20T11:14:19.297Z,22.75
2022-09-20T11:16:53.125Z,22.75
2022-09-20T11:19:19.863Z,22.76
2022-09-20T11:21:46.187Z,22.75
2022-09-20T11:24:23.580Z,22.76
2022-09-20T11:26:52.124Z,22.76
2022-09-20T11:29:32.351Z,22.75
2022-09-20T11:32:18.988Z,22.77
2022-09-20T11:35:11.373Z,22.74
2022-09-20T11:37:47.293Z,22.74
2022-09-20T11:40:13.629Z,22.74
2022-09-20T11:42:41.673Z,22.73
2022-09-20T11:45:11.874Z,22.72
2022-09-20T11:47:54.970Z,22.71
2022-09-20T11:50:34.586Z,22.70
2022-09-20T11:53:19.797Z,22.70
2022-09-20T11:55:50.403Z,22.71
2022-09-20T11:58:20.748Z,22.70
2022-09-20T12:00:48.701Z,22.70
2022-09-20T12:03:27.519Z,22.71
2022-09-20T12:06:01.858Z,22.70
2022-09-20T12:08:38.985Z,22.68
2022-09-20T12:11:07.309Z,22.68
2022-09-20T12:13:38.914Z,22.67
2022-09-20T12:16:07.547Z,22.67
2022-09-20T12:18:34.026Z,22.68
2022-09-20T12:21:00.582Z,22.68
2022-09-20T12:23:42.501Z,22.69
2022-09-20T12:26:21.648Z,22.70
2022-09-20T12:28:49.915Z,22.68
2022-09-20T12:31:22.143Z,22.67
2022-09-20T12:33:56.426Z,22.67
2022-09-20T12:36:23.688Z,22.67
2022-09-20T12:39:01.023Z,22.67
2022-09-20T12:41:29.040Z,22.66
2022-09-20T12:44:00.971Z,22.62
2022-09-20T12:46:56.602Z,22.65
2022-09-20T12:49:52.680Z,22.64
2022-09-20T12:52:45.708Z,22.62
2022-09-20T12:55:25.930Z,22.60
2022-09-20T12:57:58.489Z,22.60
2022-09-20T13:00:32.033Z,22.60
2022-09-20T13:02:59.789Z,22.59
2022-09-20T13:05:34.203Z,22.58
2022-09-20T13:08:03.044Z,22.58
2022-09-20T13:10:31.188Z,22.58
2022-09-20T13:13:00.866Z,22.59
2022-09-20T13:15:27.543Z,22.58
2022-09-20T13:17:55.893Z,22.58
2022-09-20T13:20:29.943Z,22.58
2022-09-20T13:23:00.174Z,22.57
2022-09-20T13:25:28.485Z,22.58
2022-09-20T13:28:21.475Z,22.58
2022-09-20T13:30:48.068Z,22.57
2022-09-20T13:33:20.248Z,22.58
2022-09-20T13:35:48.658Z,22.58
2022-09-20T13:38:20.291Z,22.59
2022-09-20T13:40:49.840Z,22.59
2022-09-20T13:43:24.068Z,22.59
2022-09-20T13:45:53.890Z,22.58
2022-09-20T13:48:23.784Z,22.57
2022-09-20T13:50:53.494Z,22.57
2022-09-20T13:53:40.110Z,22.57
2022-09-20T13:56:16.522Z,22.57
2022-09-20T13:58:43.110Z,22.56
2022-09-20T14:01:21.439Z,22.56
2022-09-20T14:03:48.264Z,22.56
2022-09-20T14:06:16.023Z,22.55
2022-09-20T14:08:44.267Z,22.55
2022-09-20T14:11:18.737Z,22.54
2022-09-20T14:13:47.719Z,22.54
2022-09-20T14:16:16.005Z,22.54
2022-09-20T14:18:43.789Z,22.54
2022-09-20T14:21:11.088Z,22.54
2022-09-20T14:23:49.817Z,22.54
2022-09-20T14:26:16.219Z,22.53
2022-09-20T14:28:45.794Z,22.52
2022-09-20T14:31:22.069Z,22.53
2022-09-20T14:33:54.895Z,22.52
2022-09-20T14:36:22.730Z,22.53
2022-09-20T14:38:50.829Z,22.54
2022-09-20T14:41:24.882Z,22.53
2022-09-20T14:43:55.679Z,22.53
2022-09-20T14:46:28.429Z,22.54
2022-09-20T14:48:55.355Z,22.54
2022-09-20T14:51:23.376Z,22.54
2022-09-20T14:53:51.374Z,22.53
2022-09-20T14:56:29.065Z,22.52
2022-09-20T14:59:05.499Z,22.51
2022-09-20T15:01:32.368Z,22.49
2022-09-20T15:03:58.988Z,22.49
2022-09-20T15:06:25.524Z,22.49
2022-09-20T15:08:51.969Z,22.49
2022-09-20T15:11:18.723Z,22.50
2022-09-20T15:13:45.491Z,22.48
2022-09-20T15:16:13.602Z,22.49
2022-09-20T15:18:43.354Z,22.48
2022-09-20T15:21:10.994Z,22.48
2022-09-20T15:23:37.581Z,22.46
2022-09-20T15:26:04.320Z,22.47
2022-09-20T15:28:32.674Z,22.47
2022-09-20T15:30:59.266Z,22.46
2022-09-20T15:33:25.649Z,22.47
2022-09-20T15:35:52.091Z,22.48
2022-09-20T15:38:18.961Z,22.47
2022-09-20T15:40:47.320Z,22.45
2022-09-20T15:43:16.333Z,22.46
2022-09-20T15:45:50.289Z,22.46
2022-09-20T15:48:21.346Z,22.46
2022-09-20T15:51:02.974Z,22.46
2022-09-20T15:53:40.785Z,22.46
2022-09-20T15:56:18.010Z,22.44
2022-09-20T15:58:48.432Z,22.45
2022-09-20T16:01:16.710Z,22.44
2022-09-20T16:03:44.134Z,22.45
2022-09-20T16:06:11.105Z,22.45
2022-09-20T16:08:38.924Z,22.45
2022-09-20T16:11:06.468Z,22.45
2022-09-20T16:13:33.020Z,22.46
2022-09-20T16:16:00.844Z,22.45
2022-09-20T16:18:46.471Z,22.45
2022-09-20T16:21:14.206Z,22.44
2022-09-20T16:23:41.277Z,22.44
2022-09-20T16:26:13.090Z,22.43
2022-09-20T16:28:47.044Z,22.44
2022-09-20T16:31:26.455Z,22.44
2022-09-20T16:33:52.866Z,22.43
2022-09-20T16:36:19.198Z,22.44
2022-09-20T16:38:45.646Z,22.44
2022-09-20T16:41:12.038Z,22.43
2022-09-20T16:43:38.442Z,22.43
2022-09-20T16:46:04.897Z,22.44
2022-09-20T16:48:32.172Z,22.43
2022-09-20T16:50:59.117Z,22.42
2022-09-20T16:53:26.081Z,22.42
2022-09-20T16:55:55.794Z,22.43
2022-09-20T16:58:29.704Z,22.41
2022-09-20T17:01:08.745Z,22.40
2022-09-20T17:03:35.161Z,22.38
2022-09-20T17:06:02.463Z,22.38
2022-09-20T17:08:28.836Z,22.38
2022-09-20T17:11:00.114Z,22.37
2022-09-20T17:13:26.552Z,22.36
2022-09-20T17:16:03.597Z,22.36
2022-09-20T17:18:30.489Z,22.36
2022-09-20T17:20:56.993Z,22.35
2022-09-20T17:23:23.727Z,22.34
2022-09-20T17:26:00.705Z,22.33
2022-09-20T17:28:27.039Z,22.35
2022-09-20T17:30:53.397Z,22.33
2022-09-20T17:33:19.776Z,22.33
2022-09-20T17:35:52.429Z,22.33
2022-09-20T17:38:18.803Z,22.32
2022-09-20T17:40:45.202Z,22.33
2022-09-20T17:43:11.600Z,22.32
2022-09-20T17:45:37.927Z,22.31
2022-09-20T17:48:04.754Z,22.30
2022-09-20T17:50:32.016Z,22.30
2022-09-20T17:52:58.346Z,22.30
2022-09-20T17:55:24.712Z,22.30
2022-09-20T17:57:52.498Z,22.30
2022-09-20T18:00:18.894Z,22.29
2022-09-20T18:02:45.288Z,22.29
2022-09-20T18:05:11.739Z,22.28
2022-09-20T18:07:38.084Z,22.27
2022-09-20T18:10:04.672Z,22.27
2022-09-20T18:12:33.273Z,22.27
2022-09-20T18:14:59.682Z,22.26
2022-09-20T18:17:26.139Z,22.25
2022-09-20T18:19:52.580Z,22.25
2022-09-20T18:22:19.060Z,22.24
2022-09-20T18:24:45.510Z,22.22
2022-09-20T18:27:11.973Z,22.23
2022-09-20T18:29:38.458Z,22.21
2022-09-20T18:32:05.403Z,22.22
2022-09-20T18:34:33.990Z,22.22
2022-09-20T18:37:01.239Z,22.22
2022-09-20T18:39:32.471Z,22.20
2022-09-20T18:41:59.939Z,22.19
2022-09-20T18:44:28.255Z,22.19
2022-09-20T18:46:55.124Z,22.18
2022-09-20T18:49:21.895Z,22.17
2022-09-20T18:51:48.764Z,22.16
2022-09-20T18:54:15.493Z,22.17
2022-09-20T18:56:43.018Z,22.16
2022-09-20T18:59:15.436Z,22.16
2022-09-20T19:01:54.107Z,22.17
2022-09-20T19:04:39.610Z,22.14
2022-09-20T19:07:24.453Z,22.15
2022-09-20T19:10:07.533Z,22.12
2022-09-20T19:12:36.951Z,22.13
2022-09-20T19:15:19.636Z,22.12
2022-09-20T19:23:01.946Z,22.09
2022-09-20T19:25:32.430Z,22.08
2022-09-20T19:27:59.039Z,22.09
2022-09-20T19:30:25.584Z,22.09
2022-09-20T19:32:52.189Z,22.09
2022-09-20T19:35:29.577Z,22.08
2022-09-20T19:38:25.165Z,22.07
2022-09-20T19:41:08.774Z,22.07
2022-09-20T19:43:50.662Z,22.05
2022-09-20T19:46:17.121Z,22.06
2022-09-20T19:48:51.880Z,22.04
2022-09-20T19:51:18.489Z,22.05
2022-09-20T19:53:45.188Z,22.04
2022-09-20T19:56:27.834Z,22.03
2022-09-20T19:58:56.054Z,22.03
2022-09-20T20:01:23.790Z,22.03
2022-09-20T20:03:50.954Z,22.03
2022-09-20T20:06:40.697Z,22.02
2022-09-20T20:09:10.670Z,22.01
2022-09-20T20:11:56.010Z,22.01
2022-09-20T20:14:41.659Z,22.00
2022-09-20T20:17:08.115Z,21.98
2022-09-20T20:19:34.539Z,21.98
2022-09-20T20:22:04.040Z,21.98
2022-09-20T20:24:41.420Z,21.98
2022-09-20T20:27:07.827Z,21.98
2022-09-20T20:29:34.423Z,21.98
2022-09-20T20:32:01.006Z,21.97
2022-09-20T20:34:27.393Z,21.98
2022-09-20T20:37:00.793Z,21.97
2022-09-20T20:39:28.749Z,21.95
2022-09-20T20:41:56.749Z,21.92
2022-09-20T20:44:25.915Z,21.94
2022-09-20T20:46:52.395Z,21.96
2022-09-20T20:49:18.911Z,21.99
2022-09-20T20:51:45.453Z,21.99
2022-09-20T20:54:11.864Z,22.00
2022-09-20T20:56:38.199Z,22.01
2022-09-20T20:59:04.685Z,22.03
2022-09-20T21:01:36.495Z,22.04
2022-09-20T21:04:04.032Z,22.04
2022-09-20T21:06:34.494Z,22.05
2022-09-20T21:09:01.915Z,22.04
2022-09-20T21:11:29.733Z,22.05
2022-09-20T21:13:57.370Z,22.04
2022-09-20T21:16:24.828Z,22.04
2022-09-20T21:18:51.531Z,22.00
2022-09-20T21:21:17.990Z,21.96
2022-09-20T21:23:46.460Z,21.95
2022-09-20T21:26:15.300Z,21.98
2022-09-20T21:28:52.204Z,22.01
2022-09-20T21:31:19.325Z,22.02
2022-09-20T21:33:45.801Z,22.04
2022-09-20T21:36:13.469Z,22.05
2022-09-20T21:38:40.450Z,22.05
2022-09-20T21:41:14.303Z,22.05
2022-09-20T21:43:41.883Z,22.06
2022-09-20T21:46:16.176Z,22.06
2022-09-20T21:48:42.588Z,22.06
2022-09-20T21:51:10.727Z,22.05
2022-09-20T21:53:37.558Z,22.05
2022-09-20T21:56:06.104Z,22.05
2022-09-20T21:58:34.047Z,22.04
2022-09-20T22:01:05.207Z,22.03
2022-09-20T22:03:33.265Z,22.03
2022-09-20T22:06:13.276Z,22.04
2022-09-20T22:08:42.007Z,22.03
2022-09-20T22:11:13.530Z,22.03
2022-09-20T22:13:42.311Z,22.00
2022-09-20T22:16:18.942Z,21.97
2022-09-20T22:18:46.095Z,21.99
2022-09-20T22:21:16.158Z,21.99
2022-09-20T22:23:42.613Z,22.00
2022-09-20T22:26:13.308Z,22.02
2022-09-20T22:28:40.563Z,22.02
2022-09-20T22:31:08.020Z,22.03
2022-09-20T22:33:35.056Z,22.02
2022-09-20T22:36:01.740Z,22.03
2022-09-20T22:38:28.801Z,22.02
2022-09-20T22:40:56.202Z,22.02
2022-09-20T22:43:22.784Z,22.02
2022-09-20T22:45:49.241Z,22.01
2022-09-20T22:48:15.695Z,22.01
2022-09-20T22:50:42.365Z,22.01
2022-09-20T22:53:08.776Z,21.95
2022-09-20T22:55:35.118Z,21.88
2022-09-20T22:58:01.495Z,21.86
2022-09-20T23:00:27.842Z,21.84
2022-09-20T23:02:58.664Z,21.86
2022-09-20T23:05:25.610Z,21.91
2022-09-20T23:07:52.008Z,21.93
2022-09-20T23:10:18.398Z,21.94
2022-09-20T23:12:44.770Z,21.96
2022-09-20T23:15:11.710Z,21.96
2022-09-20T23:17:40.931Z,21.97
2022-09-20T23:20:07.833Z,21.96
2022-09-20T23:22:34.209Z,21.96
2022-09-20T23:25:00.654Z,21.96
2022-09-20T23:27:27.028Z,21.97
2022-09-20T23:29:53.372Z,21.96
2022-09-20T23:32:19.799Z,21.91
2022-09-20T23:34:46.128Z,21.88
2022-09-20T23:37:12.842Z,21.86
2022-09-20T23:39:39.492Z,21.86
2022-09-20T23:42:06.112Z,21.86
2022-09-20T23:44:32.486Z,21.87
2022-09-20T23:46:58.894Z,21.89
2022-09-20T23:49:25.225Z,21.91
2022-09-20T23:51:51.553Z,21.93
2022-09-20T23:54:17.936Z,21.93
2022-09-20T23:56:44.326Z,21.94
2022-09-20T23:59:10.993Z,21.94
